Time;durP1;ratioP1;P1;durP2;ratioP2;P2;SDS_P1;SDS_P2;PMS_P1;PMS_P2;Temp;Humidity;BMP_temperature;BMP_pressure;BME280_temperature;BME280_humidity;BME280_pressure;Samples;Min_cycle;Max_cycle;Signal;HPM_P1;HPM_P2
2021/12/03 00:00:48;;;;;;;;;;;;;;;9.95;60.70;98371.97;4354816;32;20038;-83
2021/12/03 00:03:15;;;;;;;;;;;;;;;10.21;59.98;98359.75;4352092;32;20090;-83
2021/12/03 00:05:42;;;;;;;;;;;;;;;10.43;58.47;98362.22;4358559;32;20002;-84
2021/12/03 00:08:09;;;;;;;;;;;;;;;10.34;59.03;98362.28;4361668;32;21010;-84
2021/12/03 00:10:37;;;;;;;;;;;;;;;10.35;58.12;98366.59;4366964;32;19995;-84
2021/12/03 00:13:04;;;;;;;;;;;;;;;10.35;57.93;98356.25;4364970;32;19982;-85
2021/12/03 00:15:31;;;;;;;;;;;;;;;10.32;58.67;98364.03;4354286;32;19982;-83
2021/12/03 00:17:58;;;;;;;;;;;;;;;10.47;57.83;98356.16;4362345;32;19980;-82
2021/12/03 00:20:25;;;;;;;;;;;;;;;10.54;57.18;98354.41;4365969;32;20323;-84
2021/12/03 00:22:54;;;;;;;;;;;;;;;10.32;58.20;98361.44;4365579;32;20415;-84
2021/12/03 00:25:21;;;;;;;;;;;;;;;10.33;58.50;98373.50;4358721;32;20006;-82
2021/12/03 00:27:48;;;;;;;;;;;;;;;10.44;59.13;98376.87;4369755;32;19975;-84
2021/12/03 00:30:15;;;;;;;;;;;;;;;10.32;58.86;98372.66;4354803;32;20397;-84
2021/12/03 00:32:43;;;;;;;;;;;;;;;10.32;59.34;98383.00;4367377;32;20460;-84
2021/12/03 00:35:10;;;;;;;;;;;;;;;10.40;59.06;98385.50;4361241;32;19983;-83
2021/12/03 00:37:38;;;;;;;;;;;;;;;10.53;57.83;98392.34;4354950;32;20377;-81
2021/12/03 00:40:06;;;;;;;;;;;;;;;10.46;58.21;98403.59;4356382;32;19994;-85
2021/12/03 00:42:33;;;;;;;;;;;;;;;10.60;58.16;98387.97;4359158;32;20325;-83
2021/12/03 00:45:01;;;;;;;;;;;;;;;10.60;57.75;98399.19;4378082;32;20000;-85
2021/12/03 00:47:28;;;;;;;;;;;;;;;10.60;58.70;98406.09;4373817;32;19983;-84
2021/12/03 00:49:55;;;;;;;;;;;;;;;10.59;58.63;98413.00;4370269;32;20009;-84
2021/12/03 00:52:22;;;;;;;;;;;;;;;10.55;58.36;98415.59;4376228;32;20037;-83
2021/12/03 00:54:49;;;;;;;;;;;;;;;10.53;58.72;98417.34;4369162;32;19995;-83
2021/12/03 00:57:16;;;;;;;;;;;;;;;10.60;58.81;98419.88;4369458;32;20037;-83
2021/12/03 00:59:42;;;;;;;;;;;;;;;10.58;59.15;98421.63;4372515;32;20034;-86
2021/12/03 01:02:09;;;;;;;;;;;;;;;10.69;59.07;98413.78;4374012;32;19991;-84
2021/12/03 01:04:36;;;;;;;;;;;;;;;10.73;58.60;98419.81;4372633;32;19986;-82
2021/12/03 01:07:03;;;;;;;;;;;;;;;10.70;58.59;98431.03;4371408;32;20357;-84
2021/12/03 01:09:31;;;;;;;;;;;;;;;10.54;59.11;98429.41;4376566;32;20033;-85
2021/12/03 01:11:58;;;;;;;;;;;;;;;10.59;58.52;98423.34;4370257;32;20437;-85
2021/12/03 01:14:26;;;;;;;;;;;;;;;10.64;57.78;98426.75;4371263;32;20042;-85
2021/12/03 01:16:52;;;;;;;;;;;;;;;10.45;58.37;98430.34;4373176;32;19993;-85
2021/12/03 01:19:21;;;;;;;;;;;;;;;10.38;58.50;98439.00;4377301;32;19991;-83
2021/12/03 01:21:48;;;;;;;;;;;;;;;10.14;58.79;98433.03;4379101;32;20020;-85
2021/12/03 01:24:15;;;;;;;;;;;;;;;10.37;58.37;98439.84;4384742;32;20037;-84
2021/12/03 01:26:44;;;;;;;;;;;;;;;10.57;57.10;98434.56;4369664;32;19974;-88
2021/12/03 01:29:11;;;;;;;;;;;;;;;10.52;58.10;98442.34;4371004;32;19995;-86
2021/12/03 01:31:38;;;;;;;;;;;;;;;10.60;58.53;98434.56;4373621;32;20005;-86
2021/12/03 01:34:05;;;;;;;;;;;;;;;10.61;58.79;98437.13;4382181;32;20450;-86
2021/12/03 01:36:31;;;;;;;;;;;;;;;10.27;57.91;98430.44;4383345;32;20976;-83
2021/12/03 01:38:58;;;;;;;;;;;;;;;10.50;57.27;98431.19;4377831;32;20002;-82
2021/12/03 01:41:27;;;;;;;;;;;;;;;10.60;57.44;98445.75;4370751;32;19983;-84
2021/12/03 01:44:00;;;;;;;;;;;;;;;10.29;58.53;98449.41;4379419;32;20288;-82
2021/12/03 01:46:28;;;;;;;;;;;;;;;10.50;58.05;98454.47;4378351;32;20062;-83
2021/12/03 01:48:54;;;;;;;;;;;;;;;10.62;57.23;98454.34;4378337;32;20020;-83
2021/12/03 01:51:21;;;;;;;;;;;;;;;10.61;57.75;98467.31;4371185;32;19991;-82
2021/12/03 01:53:48;;;;;;;;;;;;;;;10.76;56.79;98468.97;4376332;32;20000;-83
2021/12/03 01:56:16;;;;;;;;;;;;;;;10.60;57.13;98471.63;4372348;32;20030;-84
2021/12/03 01:58:43;;;;;;;;;;;;;;;10.48;57.95;98459.63;4371030;32;19987;-81
2021/12/03 02:01:12;;;;;;;;;;;;;;;10.65;56.35;98454.34;4372381;32;20013;-83
2021/12/03 02:03:40;;;;;;;;;;;;;;;10.30;57.72;98457.12;4377554;32;19991;-85
2021/12/03 02:06:08;;;;;;;;;;;;;;;10.38;57.87;98464.88;4370927;32;20589;-84
2021/12/03 02:08:35;;;;;;;;;;;;;;;10.40;57.41;98470.88;4367432;32;20024;-82
2021/12/03 02:11:02;;;;;;;;;;;;;;;10.21;58.00;98483.87;4373083;32;19987;-83
2021/12/03 02:13:30;;;;;;;;;;;;;;;10.09;58.50;98476.19;4377708;32;20265;-83
2021/12/03 02:15:59;;;;;;;;;;;;;;;9.94;59.46;98471.06;4373656;32;19998;-82
2021/12/03 02:18:26;;;;;;;;;;;;;;;10.09;59.17;98468.41;4375157;32;20006;-82
2021/12/03 02:20:55;;;;;;;;;;;;;;;10.01;59.62;98471.00;4371261;32;20363;-82
2021/12/03 02:23:22;;;;;;;;;;;;;;;9.73;60.36;98478.03;4370506;32;20025;-82
2021/12/03 02:25:49;;;;;;;;;;;;;;;9.77;60.51;98479.72;4372656;32;19983;-82
2021/12/03 02:28:17;;;;;;;;;;;;;;;9.91;60.09;98484.00;4376890;32;20658;-82
2021/12/03 02:30:45;;;;;;;;;;;;;;;9.98;59.88;98485.69;4371425;32;20007;-82
2021/12/03 02:33:12;;;;;;;;;;;;;;;9.97;59.17;98490.00;4372482;32;19997;-84
2021/12/03 02:35:44;;;;;;;;;;;;;;;10.00;59.24;98489.12;4363965;32;20285;-83
2021/12/03 02:38:13;;;;;;;;;;;;;;;9.86;59.79;98506.41;4369796;32;19999;-82
2021/12/03 02:40:40;;;;;;;;;;;;;;;10.04;59.34;98516.69;4374576;32;20050;-82
2021/12/03 02:43:07;;;;;;;;;;;;;;;9.69;59.95;98515.03;4376002;32;19987;-82
2021/12/03 02:45:34;;;;;;;;;;;;;;;9.82;59.38;98522.78;4378893;32;19974;-83
2021/12/03 02:48:04;;;;;;;;;;;;;;;9.91;59.48;98527.94;4379423;32;19998;-84
2021/12/03 02:50:30;;;;;;;;;;;;;;;9.80;59.97;98533.12;4372289;32;20030;-83
2021/12/03 02:52:57;;;;;;;;;;;;;;;9.48;60.66;98540.94;4369167;32;20418;-83
2021/12/03 02:55:24;;;;;;;;;;;;;;;9.62;60.54;98534.00;4370074;32;20014;-82
2021/12/03 02:57:51;;;;;;;;;;;;;;;9.80;60.15;98547.78;4378200;32;20859;-83
2021/12/03 03:00:19;;;;;;;;;;;;;;;9.73;59.89;98550.38;4369269;32;19983;-82
2021/12/03 03:02:46;;;;;;;;;;;;;;;9.59;60.51;98554.69;4363442;32;20033;-83
2021/12/03 03:05:14;;;;;;;;;;;;;;;9.65;60.41;98565.00;4378608;32;20790;-83
2021/12/03 03:07:41;;;;;;;;;;;;;;;9.71;60.60;98564.16;4382297;32;19999;-82
2021/12/03 03:10:10;;;;;;;;;;;;;;;9.57;60.70;98573.63;4386979;32;19994;-82
2021/12/03 03:12:38;;;;;;;;;;;;;;;9.69;60.57;98579.62;4379436;32;19987;-81
2021/12/03 03:15:06;;;;;;;;;;;;;;;9.65;60.64;98580.50;4379058;32;20029;-83
2021/12/03 03:17:33;;;;;;;;;;;;;;;9.86;60.03;98583.94;4380956;32;20005;-82
2021/12/03 03:20:00;;;;;;;;;;;;;;;9.68;60.71;98596.00;4375971;32;19983;-81
2021/12/03 03:22:27;;;;;;;;;;;;;;;9.88;59.86;98592.56;4369056;32;19986;-82
2021/12/03 03:24:55;;;;;;;;;;;;;;;9.66;60.71;98581.38;4370228;32;19970;-81
2021/12/03 03:27:21;;;;;;;;;;;;;;;9.59;60.92;98585.69;4370552;32;20038;-82
2021/12/03 03:29:49;;;;;;;;;;;;;;;9.74;60.75;98597.75;4378921;32;20036;-82
2021/12/03 03:32:16;;;;;;;;;;;;;;;9.75;60.34;98602.91;4370295;32;20337;-82
2021/12/03 03:34:42;;;;;;;;;;;;;;;9.81;59.89;98611.50;4377152;32;19978;-82
2021/12/03 03:37:09;;;;;;;;;;;;;;;9.56;60.99;98616.69;4370095;32;20027;-82
2021/12/03 03:39:36;;;;;;;;;;;;;;;9.36;62.01;98618.41;4370700;32;20313;-82
2021/12/03 03:42:03;;;;;;;;;;;;;;;9.55;61.73;98625.31;4370483;32;20032;-82
2021/12/03 03:44:30;;;;;;;;;;;;;;;9.64;61.12;98635.63;4376275;32;20000;-81
2021/12/03 03:47:00;;;;;;;;;;;;;;;9.73;61.01;98630.47;4377131;32;19998;-81
2021/12/03 03:49:27;;;;;;;;;;;;;;;9.71;60.67;98634.78;4379220;32;19994;-81
2021/12/03 03:51:54;;;;;;;;;;;;;;;9.58;61.39;98645.13;4368908;32;20041;-83
2021/12/03 03:54:21;;;;;;;;;;;;;;;9.45;61.11;98644.25;4372054;32;19975;-81
2021/12/03 03:56:48;;;;;;;;;;;;;;;9.38;61.65;98643.38;4375950;32;19997;-82
2021/12/03 03:59:17;;;;;;;;;;;;;;;9.19;62.45;98642.47;4378419;32;20034;-81
2021/12/03 04:01:45;;;;;;;;;;;;;;;9.57;61.01;98649.41;4372342;32;20489;-82
2021/12/03 04:04:12;;;;;;;;;;;;;;;9.73;59.73;98639.94;4376965;32;19975;-81
2021/12/03 04:06:39;;;;;;;;;;;;;;;9.55;60.65;98645.97;4370056;32;19999;-81
2021/12/03 04:09:06;;;;;;;;;;;;;;;9.54;60.66;98647.69;4378733;32;20336;-82
2021/12/03 04:11:34;;;;;;;;;;;;;;;9.40;60.73;98640.78;4370249;32;19997;-82
2021/12/03 04:14:01;;;;;;;;;;;;;;;9.53;60.22;98660.59;4370239;32;19983;-83
2021/12/03 04:16:28;;;;;;;;;;;;;;;9.19;61.62;98668.28;4368751;32;20331;-80
2021/12/03 04:18:55;;;;;;;;;;;;;;;9.38;61.01;98673.47;4368687;32;20001;-82
2021/12/03 04:21:22;;;;;;;;;;;;;;;9.01;61.92;98675.97;4373884;32;20029;-83
2021/12/03 04:23:49;;;;;;;;;;;;;;;9.35;60.48;98688.97;4374803;32;19975;-81
2021/12/03 04:26:16;;;;;;;;;;;;;;;9.32;60.55;98695.00;4370196;32;20006;-84
2021/12/03 04:28:43;;;;;;;;;;;;;;;9.22;60.92;98691.53;4372617;32;20363;-87
2021/12/03 04:31:10;;;;;;;;;;;;;;;8.83;62.20;98708.56;4383183;32;20001;-82
2021/12/03 04:33:37;;;;;;;;;;;;;;;8.78;62.40;98702.53;4380226;32;19990;-83
2021/12/03 04:36:04;;;;;;;;;;;;;;;9.05;61.25;98712.13;4368865;32;19996;-83
2021/12/03 04:38:31;;;;;;;;;;;;;;;8.90;61.66;98721.50;4370013;32;20066;-84
2021/12/03 04:41:01;;;;;;;;;;;;;;;9.09;60.70;98723.31;4378111;32;19979;-82
2021/12/03 04:43:28;;;;;;;;;;;;;;;9.03;60.78;98741.34;4369654;32;20025;-83
2021/12/03 04:45:55;;;;;;;;;;;;;;;8.70;61.78;98740.34;4377367;32;19998;-82
2021/12/03 04:48:23;;;;;;;;;;;;;;;8.81;61.44;98738.69;4370798;32;19987;-82
2021/12/03 04:50:51;;;;;;;;;;;;;;;8.84;60.94;98743.87;4375922;32;20312;-81
2021/12/03 04:53:19;;;;;;;;;;;;;;;8.55;62.28;98751.44;4369633;32;20384;-81
2021/12/03 04:55:47;;;;;;;;;;;;;;;8.71;61.56;98765.28;4374729;32;19998;-80
2021/12/03 04:58:14;;;;;;;;;;;;;;;8.57;61.94;98764.31;4382364;32;20001;-80
2021/12/03 05:00:51;;;;;;;;;;;;;;;8.46;62.95;98781.47;4383422;32;20459;-81
2021/12/03 05:03:20;;;;;;;;;;;;;;;8.65;61.36;98788.47;4378603;32;19998;-80
2021/12/03 05:05:52;;;;;;;;;;;;;;;8.60;61.84;98779.81;4372293;32;20260;-80
2021/12/03 05:08:20;;;;;;;;;;;;;;;8.60;61.50;98790.16;4374270;32;19995;-81
2021/12/03 05:10:47;;;;;;;;;;;;;;;8.67;61.15;98791.91;4379856;32;20320;-81
2021/12/03 05:13:19;;;;;;;;;;;;;;;8.74;61.05;98795.38;4379482;32;19982;-80
2021/12/03 05:15:46;;;;;;;;;;;;;;;8.64;61.20;98802.19;4379699;32;20037;-81
2021/12/03 05:18:14;;;;;;;;;;;;;;;8.35;62.24;98805.37;4379988;32;20038;-81
2021/12/03 05:20:41;;;;;;;;;;;;;;;8.40;61.65;98812.34;4383081;32;20304;-80
2021/12/03 05:23:09;;;;;;;;;;;;;;;8.68;60.85;98829.78;4381898;32;19970;-81
2021/12/03 05:25:36;;;;;;;;;;;;;;;8.79;60.24;98833.28;4376001;32;19987;-81
2021/12/03 05:28:02;;;;;;;;;;;;;;;8.69;60.61;98834.06;4360420;32;20073;-81
2021/12/03 05:30:30;;;;;;;;;;;;;;;8.53;60.87;98834.81;4376254;32;20473;-81
2021/12/03 05:32:57;;;;;;;;;;;;;;;8.66;60.16;98846.94;4380206;32;19982;-84
2021/12/03 05:35:27;;;;;;;;;;;;;;;8.67;59.69;98858.97;4212516;32;5092420;-83
2021/12/03 05:37:54;;;;;;;;;;;;;;;8.66;59.65;98856.41;4377716;32;19982;-83
2021/12/03 05:40:21;;;;;;;;;;;;;;;8.52;60.18;98858.84;4381885;32;20003;-84
2021/12/03 05:42:48;;;;;;;;;;;;;;;8.66;59.24;98862.41;4379543;32;19986;-83
2021/12/03 05:45:17;;;;;;;;;;;;;;;8.49;58.81;98879.47;4371676;32;19998;-83
2021/12/03 05:47:44;;;;;;;;;;;;;;;8.38;59.95;98895.69;4376053;32;20034;-82
2021/12/03 05:50:11;;;;;;;;;;;;;;;8.22;59.88;98906.69;4378741;32;19992;-77
2021/12/03 05:52:38;;;;;;;;;;;;;;;8.40;58.68;98900.03;4378848;32;20487;-83
2021/12/03 05:55:06;;;;;;;;;;;;;;;8.62;57.08;98907.09;4376816;32;20057;-83
2021/12/03 05:57:33;;;;;;;;;;;;;;;8.21;57.86;98925.59;4381597;32;19995;-83
2021/12/03 06:00:00;;;;;;;;;;;;;;;8.22;58.31;98929.03;4379975;32;20016;-84
2021/12/03 06:02:30;;;;;;;;;;;;;;;8.49;57.13;98941.37;4384323;32;20049;-83
2021/12/03 06:04:57;;;;;;;;;;;;;;;8.68;56.04;98947.56;4377916;32;20042;-85
2021/12/03 06:07:24;;;;;;;;;;;;;;;8.61;55.41;98946.63;4370974;32;20022;-87
2021/12/03 06:09:51;;;;;;;;;;;;;;;8.53;54.85;98943.13;4379317;32;20502;-82
2021/12/03 06:12:18;;;;;;;;;;;;;;;8.55;54.79;98946.56;4384109;32;20069;-84
2021/12/03 06:14:44;;;;;;;;;;;;;;;8.41;55.83;98953.31;4373947;32;19986;-80
2021/12/03 06:17:13;;;;;;;;;;;;;;;8.46;54.19;98961.97;4382480;32;20037;-83
2021/12/03 06:19:40;;;;;;;;;;;;;;;8.37;55.32;98963.56;4383072;32;19990;-84
2021/12/03 06:22:07;;;;;;;;;;;;;;;8.59;54.32;98969.00;4382108;32;20045;-83
2021/12/03 06:24:36;;;;;;;;;;;;;;;8.63;53.98;98975.91;4374666;32;20058;-81
2021/12/03 06:27:03;;;;;;;;;;;;;;;8.68;53.78;98983.66;4370739;32;20005;-82
2021/12/03 06:29:30;;;;;;;;;;;;;;;8.65;53.94;98989.69;4383441;32;20029;-80
2021/12/03 06:31:57;;;;;;;;;;;;;;;8.72;54.02;98994.06;4380223;32;20485;-85
2021/12/03 06:34:24;;;;;;;;;;;;;;;8.54;54.01;98996.44;4385732;32;19979;-82
2021/12/03 06:36:51;;;;;;;;;;;;;;;8.85;52.36;99006.22;4380607;32;20276;-83
2021/12/03 06:39:17;;;;;;;;;;;;;;;8.73;51.91;99016.41;4376247;32;20033;-82
2021/12/03 06:41:45;;;;;;;;;;;;;;;8.54;52.37;99027.38;4370490;32;19976;-83
2021/12/03 06:44:11;;;;;;;;;;;;;;;8.19;53.24;99040.69;4365770;32;20579;-78
2021/12/03 06:46:38;;;;;;;;;;;;;;;8.42;53.51;99042.72;4374078;32;20013;-79
2021/12/03 06:49:05;;;;;;;;;;;;;;;8.25;53.82;99039.91;4371165;32;19983;-83
2021/12/03 06:51:32;;;;;;;;;;;;;;;8.30;53.08;99054.59;4369980;32;20022;-83
2021/12/03 06:54:03;;;;;;;;;;;;;;;8.03;54.00;99054.22;4368346;32;20027;-81
2021/12/03 06:56:48;;;;;;;;;;;;;;;8.22;53.44;99058.78;4370217;32;19990;-84
2021/12/03 06:59:15;;;;;;;;;;;;;;;8.06;53.79;99064.59;4370269;32;19987;-84
2021/12/03 07:01:42;;;;;;;;;;;;;;;8.09;53.59;99074.94;4370685;32;19983;-82
2021/12/03 07:04:09;;;;;;;;;;;;;;;8.28;53.32;99087.22;4370784;32;20034;-83
2021/12/03 07:06:36;;;;;;;;;;;;;;;8.13;53.45;99087.00;4369533;32;20009;-81
2021/12/03 07:09:04;;;;;;;;;;;;;;;8.06;53.26;99092.94;4369301;32;20010;-82
2021/12/03 07:11:31;;;;;;;;;;;;;;;8.40;52.34;99103.75;4342350;32;895814;-84
2021/12/03 07:13:57;;;;;;;;;;;;;;;8.41;52.99;99108.03;4370938;32;19973;-83
2021/12/03 07:16:25;;;;;;;;;;;;;;;8.55;52.25;99112.53;4349094;32;20084;-76
2021/12/03 07:18:52;;;;;;;;;;;;;;;8.67;51.40;99101.47;4354692;32;20290;-82
2021/12/03 07:21:18;;;;;;;;;;;;;;;8.49;52.23;99111.59;4357155;32;20029;-80
2021/12/03 07:23:47;;;;;;;;;;;;;;;8.37;51.23;99114.84;4361663;32;19999;-82
2021/12/03 07:26:18;;;;;;;;;;;;;;;8.64;50.93;99127.25;4356182;32;19999;-85
2021/12/03 07:28:44;;;;;;;;;;;;;;;8.78;49.37;99130.88;4355165;32;19987;-79
2021/12/03 07:31:12;;;;;;;;;;;;;;;8.65;49.76;99149.63;4355646;32;20067;-82
2021/12/03 07:33:40;;;;;;;;;;;;;;;8.83;49.94;99155.00;4354226;32;20379;-83
2021/12/03 07:36:07;;;;;;;;;;;;;;;8.82;49.17;99173.91;4355556;32;19995;-80
2021/12/03 07:38:35;;;;;;;;;;;;;;;8.80;50.36;99170.44;4361950;32;19996;-78
2021/12/03 07:41:02;;;;;;;;;;;;;;;8.94;49.33;99186.13;4343743;32;20026;-80
2021/12/03 07:43:29;;;;;;;;;;;;;;;8.93;48.57;99191.25;4360369;32;19995;-80
2021/12/03 07:45:56;;;;;;;;;;;;;;;8.72;48.57;99197.88;4361141;32;19978;-81
2021/12/03 07:48:23;;;;;;;;;;;;;;;8.70;49.68;99203.88;4364115;32;19987;-80
2021/12/03 07:50:51;;;;;;;;;;;;;;;8.70;47.95;99199.56;4357436;32;19991;-80
2021/12/03 07:53:19;;;;;;;;;;;;;;;8.70;49.59;99204.72;4363964;32;20333;-80
2021/12/03 07:55:47;;;;;;;;;;;;;;;8.54;48.29;99205.38;4365801;32;20038;-80
2021/12/03 07:58:14;;;;;;;;;;;;;;;8.36;49.16;99214.56;4356862;32;20300;-80
2021/12/03 08:00:41;;;;;;;;;;;;;;;8.71;47.40;99221.97;4354032;32;20384;-81
2021/12/03 08:03:16;;;;;;;;;;;;;;;8.31;48.44;99235.94;4354840;32;19999;-81
2021/12/03 08:05:43;;;;;;;;;;;;;;;7.72;49.78;99244.41;4362224;32;20005;-81
2021/12/03 08:08:09;;;;;;;;;;;;;;;8.31;49.93;99246.25;4355451;32;19983;-81
2021/12/03 08:10:37;;;;;;;;;;;;;;;8.68;48.38;99241.66;4356471;32;20030;-81
2021/12/03 08:13:04;;;;;;;;;;;;;;;8.65;47.99;99263.16;4361745;32;20062;-81
2021/12/03 08:15:36;;;;;;;;;;;;;;;8.96;46.87;99268.72;4353853;32;19983;-82
2021/12/03 08:18:04;;;;;;;;;;;;;;;9.05;46.42;99274.88;4359792;32;20043;-80
2021/12/03 08:20:31;;;;;;;;;;;;;;;8.86;48.58;99278.06;4357330;32;19979;-79
2021/12/03 08:22:58;;;;;;;;;;;;;;;9.16;47.13;99282.78;4353290;32;20329;-81
2021/12/03 08:25:26;;;;;;;;;;;;;;;9.44;45.12;99298.59;4363188;32;19987;-81
2021/12/03 08:27:53;;;;;;;;;;;;;;;9.27;44.52;99291.50;4355254;32;20326;-80
2021/12/03 08:30:20;;;;;;;;;;;;;;;9.12;45.82;99291.31;4353603;32;20061;-81
2021/12/03 08:32:48;;;;;;;;;;;;;;;9.35;45.17;99294.19;4344271;32;19983;-79
2021/12/03 08:35:15;;;;;;;;;;;;;;;9.49;45.67;99307.28;4342040;32;19983;-80
2021/12/03 08:37:45;;;;;;;;;;;;;;;9.43;43.44;99308.06;4340748;33;20003;-80
2021/12/03 08:40:13;;;;;;;;;;;;;;;9.51;44.86;99310.75;4339872;33;19975;-81
2021/12/03 08:42:39;;;;;;;;;;;;;;;9.39;43.14;99310.59;4339249;33;19991;-80
2021/12/03 08:45:08;;;;;;;;;;;;;;;9.63;42.43;99321.19;4342432;32;20787;-78
2021/12/03 08:47:35;;;;;;;;;;;;;;;9.22;41.89;99313.84;4344615;32;20092;-81
2021/12/03 08:50:06;;;;;;;;;;;;;;;9.21;44.10;99337.91;4348420;32;20314;-80
2021/12/03 08:52:48;;;;;;;;;;;;;;;8.77;44.07;99340.72;4340299;33;19992;-80
2021/12/03 08:55:15;;;;;;;;;;;;;;;9.18;45.04;99350.78;4340017;33;19979;-81
2021/12/03 08:57:41;;;;;;;;;;;;;;;9.42;43.44;99357.12;4342505;32;19995;-81
2021/12/03 09:00:15;;;;;;;;;;;;;;;9.48;43.54;99346.88;4344883;32;20086;-80
2021/12/03 09:02:42;;;;;;;;;;;;;;;9.16;43.48;99349.91;4339549;33;20046;-81
2021/12/03 09:05:09;;;;;;;;;;;;;;;9.25;41.79;99355.19;4345990;32;19979;-81
2021/12/03 09:07:37;;;;;;;;;;;;;;;9.09;43.19;99373.88;4354419;32;19983;-81
2021/12/03 09:10:15;;;;;;;;;;;;;;;9.13;45.60;99375.69;4354037;32;20010;-82
2021/12/03 09:12:42;;;;;;;;;;;;;;;9.07;46.07;99376.44;4362009;32;19999;-82
2021/12/03 09:15:12;;;;;;;;;;;;;;;9.31;42.90;99381.06;4354462;32;19975;-80
2021/12/03 09:23:05;;;;;;;;;;;;;;;9.53;43.14;99402.91;4352488;32;20045;-81
2021/12/03 09:25:34;;;;;;;;;;;;;;;9.54;43.15;99406.37;4367436;32;19991;-82
2021/12/03 09:28:05;;;;;;;;;;;;;;;9.31;45.33;99408.63;4354544;32;20005;-81
2021/12/03 09:30:36;;;;;;;;;;;;;;;9.82;41.96;99411.88;4354830;32;19985;-82
2021/12/03 09:33:05;;;;;;;;;;;;;;;8.61;43.81;99405.81;4355251;32;19983;-81
2021/12/03 09:35:35;;;;;;;;;;;;;;;9.26;41.67;99400.81;4367157;32;19987;-82
2021/12/03 09:38:01;;;;;;;;;;;;;;;9.46;42.09;99400.22;4367222;32;19983;-81
2021/12/03 09:40:35;;;;;;;;;;;;;;;9.35;41.38;99399.19;4368427;32;19983;-82
2021/12/03 09:43:03;;;;;;;;;;;;;;;9.17;41.48;99403.28;4362695;32;19979;-82
2021/12/03 09:45:29;;;;;;;;;;;;;;;9.18;41.01;99405.00;4361112;32;20022;-83
2021/12/03 09:47:57;;;;;;;;;;;;;;;9.02;40.95;99397.88;4363477;32;19996;-81
2021/12/03 09:50:24;;;;;;;;;;;;;;;8.96;40.83;99402.94;4372565;32;19976;-82
2021/12/03 09:53:11;;;;;;;;;;;;;;;8.88;38.20;99404.56;4364327;32;20038;-82
2021/12/03 09:55:38;;;;;;;;;;;;;;;9.01;39.43;99401.31;4356061;32;20030;-81
2021/12/03 09:58:41;;;;;;;;;;;;;;;8.95;41.25;99398.63;4356342;32;19987;-82
2021/12/03 10:01:13;;;;;;;;;;;;;;;8.68;41.78;99407.69;4358074;32;19990;-81
2021/12/03 10:04:14;;;;;;;;;;;;;;;9.29;40.38;99403.44;4363015;32;20030;-82
2021/12/03 10:14:51;;;;;;;;;;;;;;;9.75;39.58;99424.72;4350422;32;20038;-82
2021/12/03 10:28:39;;;;;;;;;;;;;;;9.76;40.06;99421.31;4341443;33;20011;-80
2021/12/03 10:34:08;;;;;;;;;;;;;;;9.48;41.99;99425.25;4341194;33;20006;-82
2021/12/03 10:39:21;;;;;;;;;;;;;;;9.20;42.74;99434.31;4341418;32;19992;-81
2021/12/03 10:48:04;;;;;;;;;;;;;;;9.88;39.23;99435.22;4347896;32;20059;-82
2021/12/03 10:53:27;;;;;;;;;;;;;;;9.14;41.27;99439.38;4340232;32;19987;-81
2021/12/03 11:06:46;;;;;;;;;;;;;;;9.56;39.25;99448.59;4375873;32;20340;-78
2021/12/03 11:15:58;;;;;;;;;;;;;;;9.48;40.72;99447.63;4372254;32;20312;-84
2021/12/03 12:27:18;;;;;;;;;;;;;;;8.99;37.77;99542.38;4370394;32;19994;-84
2021/12/03 14:22:52;;;;;;;;;;;;;;;8.57;41.44;99610.41;4371901;32;20009;-86
2021/12/03 14:45:28;;;;;;;;;;;;;;;8.81;42.65;99657.37;4371633;32;19987;-85
2021/12/03 14:55:49;;;;;;;;;;;;;;;8.71;40.78;99660.59;4374128;32;20005;-84
2021/12/03 14:58:20;;;;;;;;;;;;;;;8.57;42.80;99667.19;4367489;32;19975;-88
2021/12/03 15:01:01;;;;;;;;;;;;;;;8.80;42.08;99676.25;4364814;32;20426;-79
2021/12/03 15:03:49;;;;;;;;;;;;;;;8.68;42.06;99668.28;4370374;32;20050;-83
2021/12/03 15:06:35;;;;;;;;;;;;;;;8.61;42.68;99679.28;4370502;32;20054;-84
2021/12/03 15:09:27;;;;;;;;;;;;;;;8.75;42.39;99683.06;4365712;32;19978;-87
2021/12/03 15:20:38;;;;;;;;;;;;;;;8.57;40.89;99692.97;4361307;32;19983;-83
2021/12/03 15:28:14;;;;;;;;;;;;;;;8.41;40.56;99707.25;4366941;32;20805;-82
2021/12/03 15:30:56;;;;;;;;;;;;;;;8.38;41.20;99707.16;4354617;32;19987;-85
2021/12/03 15:36:06;;;;;;;;;;;;;;;8.24;41.41;99709.41;4361340;32;20002;-84
2021/12/03 15:41:30;;;;;;;;;;;;;;;8.17;41.66;99723.00;4370139;32;19994;-84
2021/12/03 15:55:00;;;;;;;;;;;;;;;8.18;41.63;99722.16;4361336;32;20035;-83
2021/12/03 16:11:40;;;;;;;;;;;;;;;8.18;40.37;99755.69;4361713;32;19988;-84
2021/12/03 16:54:10;;;;;;;;;;;;;;;7.15;42.30;99790.72;4372479;32;20444;-82
2021/12/03 16:56:43;;;;;;;;;;;;;;;7.25;42.01;99792.72;4380551;32;20030;-85
2021/12/03 16:59:10;;;;;;;;;;;;;;;7.21;41.57;99793.44;4360926;32;19988;-84
2021/12/03 17:01:42;;;;;;;;;;;;;;;7.33;40.51;99796.38;4371530;32;21211;-83
2021/12/03 17:30:53;;;;;;;;;;;;;;;6.85;43.78;99801.84;4375542;32;19985;-86
2021/12/03 17:54:57;;;;;;;;;;;;;;;6.48;40.66;99821.28;4376160;32;20058;-80
2021/12/03 17:57:39;;;;;;;;;;;;;;;6.74;40.66;99818.66;4377955;32;20030;-85
2021/12/03 18:00:10;;;;;;;;;;;;;;;6.66;40.46;99820.13;4371581;32;20396;-87
2021/12/03 18:02:46;;;;;;;;;;;;;;;6.75;40.57;99820.41;4390067;32;20362;-87
2021/12/03 18:10:43;;;;;;;;;;;;;;;6.61;40.75;99826.81;4382111;32;19983;-86
2021/12/03 18:51:07;;;;;;;;;;;;;;;6.63;41.30;99832.87;4340059;32;20002;-84
2021/12/03 18:59:11;;;;;;;;;;;;;;;6.42;42.14;99836.50;4329040;32;20503;-89
2021/12/03 19:01:42;;;;;;;;;;;;;;;6.41;42.20;99850.16;4331205;32;20042;-84
2021/12/03 19:04:36;;;;;;;;;;;;;;;6.33;42.18;99841.34;4337305;32;19983;-87
2021/12/03 19:07:07;;;;;;;;;;;;;;;6.41;42.69;99842.47;4335520;32;20002;-81
2021/12/03 19:09:42;;;;;;;;;;;;;;;6.52;42.21;99828.25;4333334;32;20004;-85
2021/12/03 19:12:12;;;;;;;;;;;;;;;6.46;42.36;99828.06;4344042;32;20010;-87
2021/12/03 19:14:46;;;;;;;;;;;;;;;6.48;41.97;99830.72;4332290;32;20035;-93
2021/12/03 19:17:14;;;;;;;;;;;;;;;6.46;41.97;99833.22;4335862;32;20043;-86
2021/12/03 19:19:44;;;;;;;;;;;;;;;6.52;42.14;99828.25;4350088;32;20003;-85
2021/12/03 19:22:11;;;;;;;;;;;;;;;6.42;42.04;99831.38;4350311;32;20007;-82
2021/12/03 19:24:39;;;;;;;;;;;;;;;6.32;42.84;99829.34;4342680;32;20433;-91
2021/12/03 19:27:07;;;;;;;;;;;;;;;6.40;42.71;99838.16;4343067;32;20001;-88
2021/12/03 19:29:36;;;;;;;;;;;;;;;6.51;42.59;99830.81;4329919;32;19987;-87
2021/12/03 19:32:04;;;;;;;;;;;;;;;6.57;42.14;99835.25;4339193;32;20099;-86
2021/12/03 19:34:31;;;;;;;;;;;;;;;6.46;42.90;99833.22;4328920;32;20058;-90
2021/12/03 19:36:58;;;;;;;;;;;;;;;6.44;42.62;99840.00;4336773;32;20397;-89
2021/12/03 19:39:26;;;;;;;;;;;;;;;6.46;42.42;99843.50;4334846;32;19999;-90
2021/12/03 19:45:00;;;;;;;;;;;;;;;6.39;42.88;99836.41;4313878;33;20413;-92
2021/12/03 19:47:34;;;;;;;;;;;;;;;6.39;42.24;99839.00;4326589;32;19995;-86
2021/12/03 19:50:32;;;;;;;;;;;;;;;6.41;42.62;99845.03;4334551;32;20043;-87
2021/12/03 19:53:02;;;;;;;;;;;;;;;6.30;42.92;99838.69;4335670;32;20000;-88
2021/12/03 19:55:29;;;;;;;;;;;;;;;6.16;43.17;99847.59;4331535;32;20024;-86
2021/12/03 19:57:56;;;;;;;;;;;;;;;5.92;43.66;99848.50;4333934;33;19990;-82
2021/12/03 20:00:24;;;;;;;;;;;;;;;5.96;43.38;99849.50;4336854;32;20000;-89
2021/12/03 20:02:52;;;;;;;;;;;;;;;5.10;45.22;99847.22;4311761;33;20009;-85
2021/12/03 20:05:19;;;;;;;0.10;0.10;;;;;;;4.52;46.79;99844.97;4321664;33;20307;-85
2021/12/03 20:07:47;;;;;;;1.05;1.05;;;;;;;4.46;47.47;99849.84;4322481;32;20263;-78
2021/12/03 20:10:16;;;;;;;1.40;1.40;;;;;;;4.73;46.62;99859.47;4328426;32;21197;-81
2021/12/03 20:12:46;;;;;;;3.20;3.00;;;;;;;4.55;46.81;99852.78;4334692;32;20290;-83
2021/12/03 20:15:23;;;;;;;143.32;127.95;;;;;;;4.79;46.72;99854.59;4324555;32;20291;-85
2021/12/03 20:17:56;;;;;;;1.80;1.70;;;;;;;5.01;46.10;99857.16;4325778;32;21153;-78
2021/12/03 20:20:25;;;;;;;1.80;1.70;;;;;;;5.63;44.88;99859.44;4325666;33;20286;-78
2021/12/03 20:23:10;;;;;;;1.87;1.77;;;;;;;5.94;43.46;99854.59;4336417;32;20316;-78
2021/12/03 20:25:58;;;;;;;1.67;1.62;;;;;;;5.97;43.29;99852.16;4338056;32;20287;-78
2021/12/03 20:28:35;;;;;;;1.50;1.50;;;;;;;6.10;43.39;99852.56;4326127;32;20318;-78
2021/12/03 20:31:05;;;;;;;1.00;1.00;;;;;;;6.31;42.76;99847.25;4324316;32;20377;-77
2021/12/03 20:38:38;;;;;;;0.50;0.50;;;;;;;6.56;42.89;99854.09;4317199;33;20288;-77